<?xml version="1.0" encoding="UTF-8" standalone="no" ?>
<gpx xmlns="http://www.topografix.com/GPX/1/1" xmlns:xsi="http://www.w3.org/2001/XMLSchema-instance" xsi:schemaLocation="http://www.topografix.com/GPX/1/1 http://www.topografix.com/GPX/1/1/gpx.xsd" version="1.1" creator="VisuGPX - https://www.visugpx.com">
  <metadata>
    <name>Macif 18 - Mercredi 4 Juin 2014</name>
    <desc><![CDATA[Macif 18 - Mercredi 4 Juin 2014]]></desc>
  </metadata>
  <trk>
    <name><![CDATA[Macif 18 - Mercredi 4 Juin 2014_1]]></name>
    <trkseg>
      <trkpt lat="46.03567" lon="-1.37011">
        <ele>83</ele>
        <time>2014-06-04T07:25:36Z</time>
      </trkpt>
      <trkpt lat="46.03586" lon="-1.37006">
        <ele>67</ele>
        <time>2014-06-04T07:30:39Z</time>
      </trkpt>
      <trkpt lat="46.03491" lon="-1.36836">
        <ele>86</ele>
        <time>2014-06-04T07:40:46Z</time>
      </trkpt>
      <trkpt lat="46.03497" lon="-1.36086">
        <ele>43</ele>
        <time>2014-06-04T07:45:50Z</time>
      </trkpt>
      <trkpt lat="46.03885" lon="-1.35659">
        <ele>42</ele>
        <time>2014-06-04T07:50:52Z</time>
      </trkpt>
      <trkpt lat="46.04253" lon="-1.35982">
        <ele>46</ele>
        <time>2014-06-04T07:55:56Z</time>
      </trkpt>
      <trkpt lat="46.0495" lon="-1.35866">
        <ele>42</ele>
        <time>2014-06-04T08:01:00Z</time>
      </trkpt>
      <trkpt lat="46.05851" lon="-1.35005">
        <ele>47</ele>
        <time>2014-06-04T08:06:10Z</time>
      </trkpt>
      <trkpt lat="46.06793" lon="-1.3403">
        <ele>60</ele>
        <time>2014-06-04T08:11:38Z</time>
      </trkpt>
      <trkpt lat="46.07618" lon="-1.33123">
        <ele>46</ele>
        <time>2014-06-04T08:16:40Z</time>
      </trkpt>
      <trkpt lat="46.0846" lon="-1.32168">
        <ele>54</ele>
        <time>2014-06-04T08:21:46Z</time>
      </trkpt>
      <trkpt lat="46.09271" lon="-1.31171">
        <ele>49</ele>
        <time>2014-06-04T08:26:49Z</time>
      </trkpt>
      <trkpt lat="46.10068" lon="-1.30223">
        <ele>64</ele>
        <time>2014-06-04T08:31:58Z</time>
      </trkpt>
      <trkpt lat="46.10902" lon="-1.29244">
        <ele>67</ele>
        <time>2014-06-04T08:37:06Z</time>
      </trkpt>
      <trkpt lat="46.11596" lon="-1.28191">
        <ele>40</ele>
        <time>2014-06-04T08:42:19Z</time>
      </trkpt>
      <trkpt lat="46.12303" lon="-1.27139">
        <ele>49</ele>
        <time>2014-06-04T08:47:21Z</time>
      </trkpt>
      <trkpt lat="46.13138" lon="-1.26395">
        <ele>52</ele>
        <time>2014-06-04T08:52:25Z</time>
      </trkpt>
      <trkpt lat="46.13977" lon="-1.25587">
        <ele>47</ele>
        <time>2014-06-04T08:57:42Z</time>
      </trkpt>
      <trkpt lat="46.14749" lon="-1.24938">
        <ele>48</ele>
        <time>2014-06-04T09:03:44Z</time>
      </trkpt>
      <trkpt lat="46.14873" lon="-1.25427">
        <ele>65</ele>
        <time>2014-06-04T09:08:48Z</time>
      </trkpt>
      <trkpt lat="46.15074" lon="-1.26018">
        <ele>50</ele>
        <time>2014-06-04T09:13:51Z</time>
      </trkpt>
      <trkpt lat="46.15106" lon="-1.26067">
        <ele>48</ele>
        <time>2014-06-04T09:18:54Z</time>
      </trkpt>
      <trkpt lat="46.15093" lon="-1.26079">
        <ele>45</ele>
        <time>2014-06-04T09:35:37Z</time>
      </trkpt>
      <trkpt lat="46.151" lon="-1.26055">
        <ele>47</ele>
        <time>2014-06-04T09:40:38Z</time>
      </trkpt>
      <trkpt lat="46.151" lon="-1.2607">
        <ele>46</ele>
        <time>2014-06-04T09:45:42Z</time>
      </trkpt>
      <trkpt lat="46.1509" lon="-1.26068">
        <ele>43</ele>
        <time>2014-06-04T09:50:46Z</time>
      </trkpt>
      <trkpt lat="46.15108" lon="-1.26059">
        <ele>29</ele>
        <time>2014-06-04T09:55:49Z</time>
      </trkpt>
      <trkpt lat="46.15095" lon="-1.26065">
        <ele>46</ele>
        <time>2014-06-04T10:11:25Z</time>
      </trkpt>
      <trkpt lat="46.15104" lon="-1.26053">
        <ele>45</ele>
        <time>2014-06-04T10:47:46Z</time>
      </trkpt>
      <trkpt lat="46.15089" lon="-1.26086">
        <ele>29</ele>
        <time>2014-06-04T10:52:49Z</time>
      </trkpt>
      <trkpt lat="46.15107" lon="-1.2606">
        <ele>52</ele>
        <time>2014-06-04T10:57:52Z</time>
      </trkpt>
      <trkpt lat="46.15081" lon="-1.26076">
        <ele>56</ele>
        <time>2014-06-04T11:03:05Z</time>
      </trkpt>
      <trkpt lat="46.15103" lon="-1.26067">
        <ele>47</ele>
        <time>2014-06-04T11:13:11Z</time>
      </trkpt>
      <trkpt lat="46.15092" lon="-1.2607">
        <ele>60</ele>
        <time>2014-06-04T11:18:11Z</time>
      </trkpt>
      <trkpt lat="46.15108" lon="-1.26056">
        <ele>53</ele>
        <time>2014-06-04T11:23:16Z</time>
      </trkpt>
      <trkpt lat="46.1512" lon="-1.26052">
        <ele>49</ele>
        <time>2014-06-04T11:33:23Z</time>
      </trkpt>
      <trkpt lat="46.15092" lon="-1.26065">
        <ele>49</ele>
        <time>2014-06-04T11:43:29Z</time>
      </trkpt>
      <trkpt lat="46.15115" lon="-1.26053">
        <ele>50</ele>
        <time>2014-06-04T11:48:47Z</time>
      </trkpt>
      <trkpt lat="46.15092" lon="-1.26055">
        <ele>32</ele>
        <time>2014-06-04T11:54:04Z</time>
      </trkpt>
      <trkpt lat="46.15109" lon="-1.26048">
        <ele>34</ele>
        <time>2014-06-04T12:05:08Z</time>
      </trkpt>
      <trkpt lat="46.15095" lon="-1.26071">
        <ele>56</ele>
        <time>2014-06-04T12:16:43Z</time>
      </trkpt>
      <trkpt lat="46.15084" lon="-1.26055">
        <ele>74</ele>
        <time>2014-06-04T12:21:46Z</time>
      </trkpt>
      <trkpt lat="46.15101" lon="-1.26058">
        <ele>53</ele>
        <time>2014-06-04T12:31:52Z</time>
      </trkpt>
      <trkpt lat="46.1511" lon="-1.26062">
        <ele>61</ele>
        <time>2014-06-04T12:37:04Z</time>
      </trkpt>
      <trkpt lat="46.15224" lon="-1.25895">
        <ele>60</ele>
        <time>2014-06-04T12:42:06Z</time>
      </trkpt>
      <trkpt lat="46.15733" lon="-1.25137">
        <ele>43</ele>
        <time>2014-06-04T12:47:09Z</time>
      </trkpt>
      <trkpt lat="46.16379" lon="-1.24573">
        <ele>52</ele>
        <time>2014-06-04T12:52:13Z</time>
      </trkpt>
      <trkpt lat="46.17068" lon="-1.24203">
        <ele>46</ele>
        <time>2014-06-04T12:57:16Z</time>
      </trkpt>
      <trkpt lat="46.1772" lon="-1.24153">
        <ele>48</ele>
        <time>2014-06-04T13:02:21Z</time>
      </trkpt>
      <trkpt lat="46.18258" lon="-1.24235">
        <ele>44</ele>
        <time>2014-06-04T13:07:50Z</time>
      </trkpt>
      <trkpt lat="46.18213" lon="-1.24566">
        <ele>53</ele>
        <time>2014-06-04T13:13:05Z</time>
      </trkpt>
      <trkpt lat="46.17484" lon="-1.2535">
        <ele>57</ele>
        <time>2014-06-04T13:18:10Z</time>
      </trkpt>
      <trkpt lat="46.17127" lon="-1.25915">
        <ele>44</ele>
        <time>2014-06-04T13:23:15Z</time>
      </trkpt>
      <trkpt lat="46.1788" lon="-1.26101">
        <ele>37</ele>
        <time>2014-06-04T13:28:18Z</time>
      </trkpt>
      <trkpt lat="46.18794" lon="-1.26142">
        <ele>42</ele>
        <time>2014-06-04T13:34:19Z</time>
      </trkpt>
      <trkpt lat="46.19545" lon="-1.26143">
        <ele>52</ele>
        <time>2014-06-04T13:39:22Z</time>
      </trkpt>
      <trkpt lat="46.20349" lon="-1.26129">
        <ele>37</ele>
        <time>2014-06-04T13:44:26Z</time>
      </trkpt>
      <trkpt lat="46.20972" lon="-1.26443">
        <ele>50</ele>
        <time>2014-06-04T13:49:51Z</time>
      </trkpt>
      <trkpt lat="46.20138" lon="-1.2749">
        <ele>52</ele>
        <time>2014-06-04T13:55:47Z</time>
      </trkpt>
      <trkpt lat="46.19367" lon="-1.28574">
        <ele>41</ele>
        <time>2014-06-04T14:01:52Z</time>
      </trkpt>
      <trkpt lat="46.1983" lon="-1.28753">
        <ele>44</ele>
        <time>2014-06-04T14:07:05Z</time>
      </trkpt>
      <trkpt lat="46.20793" lon="-1.28539">
        <ele>44</ele>
        <time>2014-06-04T14:12:08Z</time>
      </trkpt>
      <trkpt lat="46.20472" lon="-1.28949">
        <ele>53</ele>
        <time>2014-06-04T14:17:11Z</time>
      </trkpt>
      <trkpt lat="46.19627" lon="-1.29732">
        <ele>56</ele>
        <time>2014-06-04T14:22:15Z</time>
      </trkpt>
      <trkpt lat="46.20303" lon="-1.29677">
        <ele>38</ele>
        <time>2014-06-04T14:27:18Z</time>
      </trkpt>
      <trkpt lat="46.21198" lon="-1.29562">
        <ele>48</ele>
        <time>2014-06-04T14:32:26Z</time>
      </trkpt>
      <trkpt lat="46.21329" lon="-1.29888">
        <ele>49</ele>
        <time>2014-06-04T14:37:29Z</time>
      </trkpt>
      <trkpt lat="46.20527" lon="-1.30733">
        <ele>50</ele>
        <time>2014-06-04T14:42:31Z</time>
      </trkpt>
      <trkpt lat="46.19856" lon="-1.31599">
        <ele>53</ele>
        <time>2014-06-04T14:47:36Z</time>
      </trkpt>
      <trkpt lat="46.20047" lon="-1.31706">
        <ele>48</ele>
        <time>2014-06-04T14:52:39Z</time>
      </trkpt>
      <trkpt lat="46.19919" lon="-1.31831">
        <ele>45</ele>
        <time>2014-06-04T14:57:42Z</time>
      </trkpt>
      <trkpt lat="46.19932" lon="-1.31855">
        <ele>44</ele>
        <time>2014-06-04T15:02:45Z</time>
      </trkpt>
      <trkpt lat="46.19922" lon="-1.31835">
        <ele>51</ele>
        <time>2014-06-04T15:07:57Z</time>
      </trkpt>
      <trkpt lat="46.19905" lon="-1.31815">
        <ele>68</ele>
        <time>2014-06-04T15:23:11Z</time>
      </trkpt>
      <trkpt lat="46.19909" lon="-1.31842">
        <ele>51</ele>
        <time>2014-06-04T15:28:16Z</time>
      </trkpt>
      <trkpt lat="46.1992" lon="-1.31835">
        <ele>48</ele>
        <time>2014-06-04T15:38:26Z</time>
      </trkpt>
      <trkpt lat="46.20015" lon="-1.31673">
        <ele>42</ele>
        <time>2014-06-04T15:58:54Z</time>
      </trkpt>
      <trkpt lat="46.20471" lon="-1.31497">
        <ele>41</ele>
        <time>2014-06-04T16:04:06Z</time>
      </trkpt>
      <trkpt lat="46.21112" lon="-1.31191">
        <ele>40</ele>
        <time>2014-06-04T16:09:08Z</time>
      </trkpt>
      <trkpt lat="46.21729" lon="-1.3096">
        <ele>37</ele>
        <time>2014-06-04T16:14:20Z</time>
      </trkpt>
      <trkpt lat="46.22356" lon="-1.30906">
        <ele>45</ele>
        <time>2014-06-04T16:19:25Z</time>
      </trkpt>
      <trkpt lat="46.21697" lon="-1.31724">
        <ele>56</ele>
        <time>2014-06-04T16:24:29Z</time>
      </trkpt>
      <trkpt lat="46.21172" lon="-1.32535">
        <ele>34</ele>
        <time>2014-06-04T16:29:34Z</time>
      </trkpt>
      <trkpt lat="46.20642" lon="-1.33179">
        <ele>55</ele>
        <time>2014-06-04T16:34:36Z</time>
      </trkpt>
      <trkpt lat="46.21222" lon="-1.33191">
        <ele>30</ele>
        <time>2014-06-04T16:39:40Z</time>
      </trkpt>
      <trkpt lat="46.21976" lon="-1.32644">
        <ele>38</ele>
        <time>2014-06-04T16:44:44Z</time>
      </trkpt>
      <trkpt lat="46.21794" lon="-1.3312">
        <ele>47</ele>
        <time>2014-06-04T16:49:53Z</time>
      </trkpt>
      <trkpt lat="46.21465" lon="-1.33659">
        <ele>37</ele>
        <time>2014-06-04T16:55:04Z</time>
      </trkpt>
      <trkpt lat="46.21319" lon="-1.34443">
        <ele>46</ele>
        <time>2014-06-04T17:00:08Z</time>
      </trkpt>
      <trkpt lat="46.22061" lon="-1.346">
        <ele>43</ele>
        <time>2014-06-04T17:05:11Z</time>
      </trkpt>
      <trkpt lat="46.21491" lon="-1.35397">
        <ele>47</ele>
        <time>2014-06-04T17:10:14Z</time>
      </trkpt>
      <trkpt lat="46.21546" lon="-1.36048">
        <ele>49</ele>
        <time>2014-06-04T17:15:52Z</time>
      </trkpt>
      <trkpt lat="46.21117" lon="-1.36605">
        <ele>56</ele>
        <time>2014-06-04T17:22:04Z</time>
      </trkpt>
      <trkpt lat="46.20708" lon="-1.36615">
        <ele>60</ele>
        <time>2014-06-04T17:27:07Z</time>
      </trkpt>
      <trkpt lat="46.20648" lon="-1.36831">
        <ele>22</ele>
        <time>2014-06-04T17:32:09Z</time>
      </trkpt>
      <trkpt lat="46.20646" lon="-1.36814">
        <ele>61</ele>
        <time>2014-06-04T17:37:53Z</time>
      </trkpt>
      <trkpt lat="46.20658" lon="-1.36796">
        <ele>40</ele>
        <time>2014-06-04T17:43:04Z</time>
      </trkpt>
      <trkpt lat="46.20658" lon="-1.3682">
        <ele>51</ele>
        <time>2014-06-04T17:53:10Z</time>
      </trkpt>
      <trkpt lat="46.20649" lon="-1.36813">
        <ele>54</ele>
        <time>2014-06-04T18:18:24Z</time>
      </trkpt>
      <trkpt lat="46.20643" lon="-1.36832">
        <ele>68</ele>
        <time>2014-06-04T18:23:28Z</time>
      </trkpt>
    </trkseg>
  </trk>
</gpx>